Time;durP1;ratioP1;P1;durP2;ratioP2;P2;SDS_P1;SDS_P2;PMS_P1;PMS_P2;Temp;Humidity;BMP_temperature;BMP_pressure;BME280_temperature;BME280_humidity;BME280_pressure;Samples;Min_cycle;Max_cycle;Signal;HPM_P1;HPM_P2
2021/01/20 00:01:27;;;;;;;11.13;7.77;;;8.00;99.90;;;;;;6070532;23;20178;-91
2021/01/20 00:03:53;;;;;;;10.47;8.03;;;8.00;99.90;;;;;;6070718;23;20252;-90
2021/01/20 00:06:20;;;;;;;8.77;6.83;;;7.90;99.90;;;;;;6071296;23;20221;-91
2021/01/20 00:08:46;;;;;;;9.53;7.10;;;7.90;99.90;;;;;;6070571;23;20190;-91
2021/01/20 00:11:13;;;;;;;9.57;7.20;;;7.80;99.90;;;;;;6070370;23;20253;-90
2021/01/20 00:13:40;;;;;;;9.33;7.23;;;7.90;99.90;;;;;;6069957;23;20174;-91
2021/01/20 00:16:07;;;;;;;9.40;6.97;;;7.90;99.90;;;;;;6069813;23;20241;-89
2021/01/20 00:18:33;;;;;;;12.47;7.10;;;7.90;99.90;;;;;;6069863;23;20249;-93
2021/01/20 00:21:00;;;;;;;8.43;6.70;;;7.80;99.90;;;;;;6070025;23;20204;-92
2021/01/20 00:23:26;;;;;;;9.17;7.20;;;7.80;99.90;;;;;;6069747;23;20253;-93
2021/01/20 00:25:53;;;;;;;8.37;7.10;;;7.90;99.90;;;;;;6070265;23;20206;-91
2021/01/20 00:28:19;;;;;;;10.30;6.53;;;7.90;99.90;;;;;;6070118;23;20200;-91
2021/01/20 00:30:47;;;;;;;10.80;6.93;;;7.90;99.90;;;;;;6070580;23;20253;-91
2021/01/20 00:33:13;;;;;;;11.77;7.47;;;7.90;99.90;;;;;;6070728;23;20614;-91
2021/01/20 00:35:40;;;;;;;8.97;7.23;;;7.90;99.90;;;;;;6069674;23;20202;-92
2021/01/20 00:38:06;;;;;;;8.80;6.80;;;8.00;99.90;;;;;;6070007;23;20547;-90
2021/01/20 00:40:32;;;;;;;9.37;6.53;;;8.00;99.90;;;;;;6070375;23;20193;-91
2021/01/20 00:42:59;;;;;;;10.80;6.87;;;8.00;99.90;;;;;;6070451;23;20170;-91
2021/01/20 00:45:25;;;;;;;11.40;6.90;;;7.90;99.90;;;;;;6069767;23;20281;-90
2021/01/20 00:47:53;;;;;;;8.73;6.80;;;7.90;99.90;;;;;;6044912;23;20189;-92
2021/01/20 00:50:19;;;;;;;10.83;7.10;;;7.90;99.90;;;;;;6045042;23;20182;-90
2021/01/20 00:52:45;;;;;;;10.70;6.63;;;7.80;99.90;;;;;;6069241;23;20176;-91
2021/01/20 00:55:14;;;;;;;9.33;7.00;;;7.90;99.90;;;;;;6070024;23;20216;-90
2021/01/20 00:57:40;;;;;;;10.03;6.40;;;7.90;99.90;;;;;;6069788;23;20170;-91
2021/01/20 01:00:08;;;;;;;9.77;6.50;;;8.00;99.90;;;;;;6045743;23;20201;-93
2021/01/20 01:02:35;;;;;;;10.43;6.83;;;7.90;99.90;;;;;;6069480;23;20274;-90
2021/01/20 01:05:03;;;;;;;8.67;6.73;;;7.90;99.90;;;;;;6069531;23;20202;-91
2021/01/20 01:07:29;;;;;;;7.97;6.00;;;7.90;99.90;;;;;;6070440;23;20235;-91
2021/01/20 01:09:56;;;;;;;7.97;6.37;;;7.90;99.90;;;;;;6069534;23;20245;-90
2021/01/20 01:12:23;;;;;;;7.03;6.00;;;7.80;99.90;;;;;;6070110;23;20167;-90
2021/01/20 01:14:49;;;;;;;7.60;6.20;;;7.80;99.90;;;;;;6070181;23;20284;-91
2021/01/20 01:17:15;;;;;;;6.67;5.97;;;7.80;99.90;;;;;;6070513;23;20178;-90
2021/01/20 01:19:42;;;;;;;6.07;5.47;;;7.80;99.90;;;;;;6069608;23;20265;-91
2021/01/20 01:22:09;;;;;;;8.47;5.90;;;7.80;99.90;;;;;;6070047;23;20317;-90
2021/01/20 01:24:36;;;;;;;9.30;6.93;;;7.70;99.90;;;;;;6069030;23;20546;-92
2021/01/20 01:27:02;;;;;;;7.60;6.13;;;7.80;99.90;;;;;;6070773;23;20206;-91
2021/01/20 01:29:28;;;;;;;8.07;5.93;;;7.80;99.90;;;;;;6069845;23;20245;-91
2021/01/20 01:31:55;;;;;;;8.73;6.00;;;7.90;99.90;;;;;;6070322;23;20174;-91
2021/01/20 01:34:21;;;;;;;8.37;5.97;;;7.90;99.90;;;;;;6070154;23;20198;-91
2021/01/20 01:36:48;;;;;;;8.07;6.10;;;7.90;99.90;;;;;;6045026;23;20522;-91
2021/01/20 01:39:15;;;;;;;6.00;5.33;;;7.80;99.90;;;;;;6069299;23;20245;-91
2021/01/20 01:41:41;;;;;;;8.40;5.77;;;7.90;99.90;;;;;;6069155;23;20196;-91
2021/01/20 01:44:08;;;;;;;8.17;6.17;;;7.90;99.90;;;;;;6070301;23;20204;-90
2021/01/20 01:46:35;;;;;;;7.80;5.70;;;7.90;99.90;;;;;;6071012;23;20190;-90
2021/01/20 01:49:01;;;;;;;7.70;6.07;;;7.90;99.90;;;;;;6071669;23;20177;-89
2021/01/20 01:51:28;;;;;;;10.60;6.07;;;7.90;99.90;;;;;;6071457;23;20185;-90
2021/01/20 01:53:54;;;;;;;8.87;6.20;;;7.80;99.90;;;;;;6070916;23;20280;-90
2021/01/20 01:56:25;;;;;;;5.97;5.27;;;7.90;99.90;;;;;;6070757;23;20201;-90
2021/01/20 01:58:52;;;;;;;7.03;6.20;;;8.00;99.90;;;;;;6071261;23;20166;-90
2021/01/20 02:01:19;;;;;;;10.33;5.70;;;8.00;99.90;;;;;;6071183;23;20174;-92
2021/01/20 02:03:48;;;;;;;7.90;5.10;;;8.00;99.90;;;;;;6070845;23;20206;-91
2021/01/20 02:06:14;;;;;;;6.97;5.63;;;8.00;99.90;;;;;;6071027;23;20194;-90
2021/01/20 02:08:41;;;;;;;7.23;5.47;;;8.00;99.90;;;;;;6070842;23;20170;-90
2021/01/20 02:11:23;;;;;;;6.13;5.60;;;7.90;99.90;;;;;;6070691;23;20176;-90
2021/01/20 02:14:01;;;;;;;7.27;4.97;;;8.00;99.90;;;;;;6071181;23;20194;-89
2021/01/20 02:16:29;;;;;;;6.90;5.40;;;7.90;99.90;;;;;;6071510;23;20598;-90
2021/01/20 02:18:58;;;;;;;7.10;5.43;;;7.90;99.90;;;;;;6070378;23;20181;-90
2021/01/20 02:22:09;;;;;;;9.40;6.23;;;7.80;99.90;;;;;;6070826;23;20177;-91
2021/01/20 02:24:45;;;;;;;5.60;5.00;;;7.80;99.90;;;;;;6020267;23;20200;-92
2021/01/20 02:27:25;;;;;;;5.70;5.10;;;7.90;99.90;;;;;;6071142;23;20217;-90
2021/01/20 02:30:08;;;;;;;7.05;6.05;;;8.00;99.90;;;;;;6069530;23;20895;-91
2021/01/20 02:32:36;;;;;;;6.37;5.47;;;8.10;99.90;;;;;;6071645;23;20712;-90
2021/01/20 02:35:04;;;;;;;6.10;5.23;;;8.00;99.90;;;;;;6070172;23;20204;-90
2021/01/20 02:37:33;;;;;;;7.53;5.57;;;8.10;99.90;;;;;;6070100;23;20174;-90
2021/01/20 02:40:00;;;;;;;8.20;6.53;;;8.10;99.90;;;;;;6070714;23;20184;-90
2021/01/20 02:42:26;;;;;;;6.70;5.40;;;8.10;99.90;;;;;;6070271;23;20174;-90
2021/01/20 02:44:53;;;;;;;6.47;5.33;;;8.20;99.90;;;;;;6070386;23;20205;-91
2021/01/20 02:47:20;;;;;;;8.43;5.77;;;8.20;99.90;;;;;;6070590;23;20194;-91
2021/01/20 02:49:47;;;;;;;8.73;5.70;;;8.10;99.90;;;;;;6070423;23;20171;-92
2021/01/20 02:52:20;;;;;;;8.27;5.43;;;8.20;99.90;;;;;;6071051;23;20240;-93
2021/01/20 02:54:48;;;;;;;8.10;5.30;;;8.20;99.90;;;;;;6070124;23;20572;-90
2021/01/20 02:57:15;;;;;;;6.50;5.70;;;8.30;99.90;;;;;;6070789;23;20223;-89
2021/01/20 02:59:45;;;;;;;7.13;5.60;;;8.30;99.90;;;;;;6070339;23;20845;-90
2021/01/20 03:02:14;;;;;;;6.00;5.40;;;8.30;99.90;;;;;;6070984;23;20169;-90
2021/01/20 03:04:44;;;;;;;7.13;5.40;;;8.20;99.90;;;;;;6044922;23;20206;-91
2021/01/20 03:07:11;;;;;;;7.80;5.63;;;8.10;99.90;;;;;;6070386;23;20213;-90
2021/01/20 03:09:38;;;;;;;5.57;5.00;;;8.10;99.90;;;;;;6070107;23;20233;-90
2021/01/20 03:12:06;;;;;;;5.80;4.67;;;8.10;99.90;;;;;;6070448;23;20511;-90
2021/01/20 03:14:33;;;;;;;7.03;5.30;;;8.20;99.90;;;;;;6070617;23;20202;-90
2021/01/20 03:17:00;;;;;;;7.17;5.47;;;8.30;99.90;;;;;;6069873;23;20260;-89
2021/01/20 03:19:26;;;;;;;6.20;4.70;;;8.30;99.90;;;;;;6070974;23;20178;-90
2021/01/20 03:21:54;;;;;;;8.10;5.00;;;8.40;99.90;;;;;;6044997;23;20204;-90
2021/01/20 03:24:20;;;;;;;8.00;5.20;;;8.40;99.90;;;;;;6070133;23;20202;-91
2021/01/20 03:26:47;;;;;;;7.80;5.00;;;8.40;99.90;;;;;;6070534;23;20190;-90
2021/01/20 03:29:13;;;;;;;6.13;4.47;;;8.50;99.90;;;;;;6070093;23;20249;-91
2021/01/20 03:31:40;;;;;;;5.80;4.40;;;8.50;99.90;;;;;;6070162;23;20217;-89
2021/01/20 03:34:06;;;;;;;6.10;5.10;;;8.50;99.90;;;;;;6069641;23;20780;-90
2021/01/20 03:36:33;;;;;;;6.27;4.47;;;8.60;99.90;;;;;;6070191;23;20205;-90
2021/01/20 03:39:00;;;;;;;7.03;4.40;;;8.60;99.90;;;;;;6070417;23;20209;-89
2021/01/20 03:41:26;;;;;;;6.27;4.40;;;8.60;99.90;;;;;;6069808;23;20225;-90
2021/01/20 03:43:53;;;;;;;5.20;4.17;;;8.60;99.90;;;;;;6070272;23;20585;-90
2021/01/20 03:46:19;;;;;;;5.13;4.30;;;8.60;99.90;;;;;;6069979;23;20285;-89
2021/01/20 03:48:46;;;;;;;4.53;4.13;;;8.70;99.90;;;;;;6070095;23;20682;-91
2021/01/20 03:51:12;;;;;;;4.17;3.87;;;8.70;99.90;;;;;;6070189;23;20253;-92
2021/01/20 03:53:39;;;;;;;6.47;3.87;;;8.60;99.90;;;;;;6069877;23;20186;-91
2021/01/20 03:56:06;;;;;;;5.53;3.67;;;8.70;99.90;;;;;;6070483;23;20257;-90
2021/01/20 03:58:33;;;;;;;6.13;4.47;;;8.70;99.90;;;;;;6070185;23;20202;-91
2021/01/20 04:00:59;;;;;;;7.50;3.83;;;8.70;99.90;;;;;;6069776;23;20171;-91
2021/01/20 04:03:26;;;;;;;4.17;3.73;;;8.80;99.90;;;;;;6069611;23;20201;-90
2021/01/20 04:05:53;;;;;;;5.53;3.67;;;8.80;99.90;;;;;;6069639;23;20319;-90
2021/01/20 04:08:19;;;;;;;3.77;3.03;;;8.80;99.90;;;;;;6044821;23;20230;-89
2021/01/20 04:10:46;;;;;;;5.10;3.13;;;8.80;99.90;;;;;;6044685;23;20178;-90
2021/01/20 04:13:13;;;;;;;4.10;3.13;;;8.80;99.90;;;;;;6070327;23;20309;-90
2021/01/20 04:15:40;;;;;;;4.63;2.87;;;8.80;99.90;;;;;;6069621;23;20198;-91
2021/01/20 04:18:06;;;;;;;4.17;3.13;;;8.80;99.90;;;;;;6069575;23;20244;-90
2021/01/20 04:20:32;;;;;;;3.60;2.73;;;8.80;99.90;;;;;;6044530;23;20182;-91
2021/01/20 04:22:59;;;;;;;3.33;2.80;;;8.80;99.90;;;;;;6070263;23;20245;-91
2021/01/20 04:25:25;;;;;;;3.30;3.00;;;8.80;99.90;;;;;;6069645;23;20212;-90
2021/01/20 04:27:52;;;;;;;3.03;2.83;;;8.90;99.90;;;;;;6069497;23;20332;-91
2021/01/20 04:30:21;;;;;;;3.53;2.60;;;8.90;99.90;;;;;;6070297;23;20173;-91
2021/01/20 04:32:47;;;;;;;2.70;2.40;;;9.00;99.90;;;;;;6070097;23;20173;-90
2021/01/20 04:35:14;;;;;;;3.07;2.33;;;8.90;99.90;;;;;;6069303;23;20194;-90
2021/01/20 04:37:40;;;;;;;3.40;2.70;;;9.00;99.90;;;;;;6070312;23;20174;-93
2021/01/20 04:40:07;;;;;;;4.13;2.70;;;9.00;99.90;;;;;;6070076;23;20252;-90
2021/01/20 04:42:34;;;;;;;3.13;2.50;;;9.00;99.90;;;;;;6069817;23;20171;-90
2021/01/20 04:45:00;;;;;;;5.30;2.50;;;9.00;99.90;;;;;;6070019;23;20303;-92
2021/01/20 04:47:29;;;;;;;3.47;2.50;;;9.00;99.90;;;;;;6069331;23;20198;-93
2021/01/20 04:49:56;;;;;;;3.17;2.30;;;9.00;99.90;;;;;;6069864;23;20248;-92
2021/01/20 04:52:24;;;;;;;3.23;2.43;;;9.00;99.90;;;;;;6069158;23;20256;-89
2021/01/20 04:54:53;;;;;;;3.33;2.50;;;9.00;99.90;;;;;;6069925;23;20198;-91
2021/01/20 04:57:19;;;;;;;3.03;2.50;;;8.90;99.90;;;;;;6069114;23;20178;-91
2021/01/20 04:59:46;;;;;;;2.93;2.40;;;8.90;99.90;;;;;;6070544;23;20174;-90
2021/01/20 05:02:14;;;;;;;3.10;2.30;;;8.90;99.90;;;;;;6071179;23;20174;-89
2021/01/20 05:04:42;;;;;;;3.17;2.40;;;8.90;99.90;;;;;;6069676;23;20264;-90
2021/01/20 05:07:09;;;;;;;3.33;2.30;;;8.80;99.90;;;;;;6072556;23;20276;-91
2021/01/20 05:09:36;;;;;;;2.63;2.30;;;8.80;99.90;;;;;;6075753;23;20189;-91
2021/01/20 05:12:03;;;;;;;3.20;2.97;;;8.70;99.90;;;;;;6050579;23;20396;-92
2021/01/20 05:14:29;;;;;;;3.70;2.50;;;8.70;99.90;;;;;;6075669;23;20214;-93
2021/01/20 05:17:07;;;;;;;2.87;2.23;;;8.60;99.90;;;;;;6075532;23;20174;-91
2021/01/20 05:19:37;;;;;;;2.70;2.23;;;8.50;99.90;;;;;;6074232;23;20174;-90
2021/01/20 05:22:06;;;;;;;3.43;2.70;;;8.40;99.90;;;;;;6071771;23;20204;-90
2021/01/20 05:24:34;;;;;;;3.27;2.50;;;8.40;99.90;;;;;;6071404;23;20281;-91
2021/01/20 05:27:00;;;;;;;2.73;2.50;;;8.30;99.90;;;;;;6072203;23;20278;-90
2021/01/20 05:29:27;;;;;;;5.73;2.50;;;8.20;99.90;;;;;;6072117;23;20248;-91
2021/01/20 05:31:53;;;;;;;4.40;3.13;;;8.10;99.90;;;;;;6071657;23;20239;-90
2021/01/20 05:34:24;;;;;;;2.83;2.63;;;8.00;99.90;;;;;;6071581;23;20673;-91
2021/01/20 05:37:02;;;;;;;3.83;2.57;;;8.00;99.90;;;;;;6071991;23;20241;-90
2021/01/20 05:39:29;;;;;;;2.60;2.40;;;7.90;99.90;;;;;;6071937;23;20169;-91
2021/01/20 05:42:04;;;;;;;5.83;3.23;;;7.80;99.90;;;;;;6046205;23;20181;-91
2021/01/20 05:44:31;;;;;;;4.40;2.97;;;7.80;99.90;;;;;;6071801;23;20241;-90
2021/01/20 05:46:57;;;;;;;2.83;2.60;;;7.80;99.90;;;;;;6070712;23;20217;-90
2021/01/20 05:49:25;;;;;;;3.40;3.10;;;7.80;99.90;;;;;;6071376;23;20253;-94
2021/01/20 05:51:52;;;;;;;3.40;2.77;;;7.80;99.90;;;;;;6071164;23;20202;-89
2021/01/20 05:54:35;;;;;;;3.83;2.90;;;7.80;99.90;;;;;;6071073;23;20272;-90
2021/01/20 05:57:13;;;;;;;2.87;2.67;;;7.80;99.90;;;;;;6068894;23;20182;-92
2021/01/20 05:59:39;;;;;;;4.27;2.63;;;7.80;99.90;;;;;;6071040;23;20204;-91
2021/01/20 06:02:06;;;;;;;3.17;2.87;;;7.80;99.90;;;;;;6070911;23;20177;-90
2021/01/20 06:04:33;;;;;;;3.30;3.00;;;7.70;99.90;;;;;;6070833;23;20268;-92
2021/01/20 06:07:03;;;;;;;5.20;2.83;;;7.70;99.90;;;;;;6070533;23;20713;-92
2021/01/20 06:09:31;;;;;;;3.47;2.53;;;7.70;99.90;;;;;;6071268;23;20244;-92
2021/01/20 06:11:58;;;;;;;2.90;2.53;;;7.70;99.90;;;;;;6071556;23;20229;-90
2021/01/20 06:14:24;;;;;;;4.13;2.73;;;7.70;99.90;;;;;;6071243;23;20277;-91
2021/01/20 06:16:55;;;;;;;3.53;2.53;;;7.70;99.90;;;;;;6077154;23;20172;-89
2021/01/20 06:19:24;;;;;;;3.27;2.83;;;7.70;99.90;;;;;;6070547;23;20174;-90
2021/01/20 06:21:52;;;;;;;2.90;2.50;;;7.80;99.90;;;;;;6071288;23;20174;-91
2021/01/20 06:24:28;;;;;;;2.97;2.53;;;7.80;99.90;;;;;;6071217;23;20201;-92
2021/01/20 06:26:59;;;;;;;3.37;3.07;;;7.70;99.90;;;;;;6070887;23;20224;-92
2021/01/20 06:29:29;;;;;;;3.77;2.80;;;7.70;99.90;;;;;;6070905;23;20249;-90
2021/01/20 06:31:58;;;;;;;3.13;2.53;;;7.80;99.90;;;;;;6071247;23;20673;-90
2021/01/20 06:34:24;;;;;;;4.07;2.73;;;7.70;99.90;;;;;;6070919;23;20273;-90
2021/01/20 06:36:51;;;;;;;2.93;2.43;;;7.70;99.90;;;;;;6071032;23;20270;-91
2021/01/20 06:39:35;;;;;;;4.30;3.10;;;7.70;99.90;;;;;;6071331;23;20197;-89
2021/01/20 06:42:03;;;;;;;3.50;2.77;;;7.80;99.90;;;;;;6070971;23;20208;-91
2021/01/20 06:44:30;;;;;;;3.27;2.70;;;7.80;99.90;;;;;;6070817;23;20194;-89
2021/01/20 06:47:01;;;;;;;2.93;2.67;;;8.00;99.90;;;;;;6070452;23;20701;-91
2021/01/20 06:49:29;;;;;;;4.53;2.33;;;7.80;99.90;;;;;;6049831;23;20179;-91
2021/01/20 06:52:12;;;;;;;4.70;3.40;;;7.80;99.90;;;;;;6081387;23;20406;-91
2021/01/20 06:54:43;;;;;;;3.23;2.77;;;7.90;99.90;;;;;;6076161;23;20209;-93
2021/01/20 06:57:28;;;;;;;2.77;2.53;;;8.00;99.90;;;;;;6077381;23;20225;-92
2021/01/20 07:00:21;;;;;;;3.43;3.13;;;8.00;99.90;;;;;;6080380;23;20205;-91
2021/01/20 07:03:00;;;;;;;3.17;2.70;;;7.90;99.90;;;;;;6046107;23;20207;-91
2021/01/20 07:05:41;;;;;;;2.80;2.70;;;7.90;99.90;;;;;;6048691;23;20329;-94
2021/01/20 07:08:09;;;;;;;3.93;2.90;;;8.00;99.90;;;;;;6052052;23;20174;-92
2021/01/20 07:11:06;;;;;;;4.10;2.90;;;8.00;99.90;;;;;;6051781;23;20179;-93
2021/01/20 07:13:35;;;;;;;2.93;2.40;;;8.10;99.90;;;;;;6049995;23;20182;-92
2021/01/20 07:16:05;;;;;;;4.37;2.60;;;8.20;99.90;;;;;;6047123;23;20182;-93
2021/01/20 07:18:32;;;;;;;2.60;2.40;;;8.20;99.90;;;;;;6049408;23;20178;-92
2021/01/20 07:20:59;;;;;;;3.40;2.37;;;8.20;99.90;;;;;;6049694;23;20201;-91
2021/01/20 07:23:27;;;;;;;3.07;2.70;;;8.20;99.90;;;;;;6052463;23;20184;-92
2021/01/20 07:25:55;;;;;;;3.73;2.60;;;8.20;99.90;;;;;;6053265;23;20198;-91
2021/01/20 07:28:23;;;;;;;3.33;2.80;;;8.10;99.90;;;;;;6050338;23;20182;-91
2021/01/20 07:31:02;;;;;;;3.90;2.47;;;8.20;99.90;;;;;;6050945;23;20181;-92
2021/01/20 07:33:31;;;;;;;6.40;2.57;;;8.20;99.90;;;;;;6049993;23;20222;-92
2021/01/20 07:36:08;;;;;;;5.97;2.90;;;8.10;99.90;;;;;;6051636;23;20182;-92
2021/01/20 07:38:34;;;;;;;3.37;2.57;;;8.10;99.90;;;;;;6049800;23;20178;-90
2021/01/20 07:41:14;;;;;;;3.40;2.30;;;8.20;99.90;;;;;;6047284;23;20171;-94
2021/01/20 07:43:42;;;;;;;3.73;2.50;;;8.20;99.90;;;;;;6051280;23;20178;-94
2021/01/20 07:46:22;;;;;;;3.23;2.80;;;8.30;99.90;;;;;;6049351;23;20202;-90
2021/01/20 07:48:50;;;;;;;4.10;2.13;;;8.20;99.90;;;;;;6050721;23;20182;-91
2021/01/20 07:51:26;;;;;;;4.23;2.40;;;8.20;99.90;;;;;;6054513;23;20207;-92
2021/01/20 07:54:01;;;;;;;3.33;3.03;;;8.10;99.90;;;;;;6053036;23;20213;-93
2021/01/20 07:56:28;;;;;;;2.83;2.60;;;8.10;99.90;;;;;;6053618;23;20174;-91
2021/01/20 07:58:55;;;;;;;2.97;2.37;;;8.20;99.90;;;;;;6051133;23;20178;-93
2021/01/20 08:01:30;;;;;;;5.37;3.07;;;8.20;99.90;;;;;;6051141;23;20203;-92
2021/01/20 08:04:00;;;;;;;4.27;2.60;;;8.20;99.90;;;;;;6071551;23;20205;-92
2021/01/20 08:06:40;;;;;;;3.63;2.47;;;8.20;99.90;;;;;;6082392;23;20284;-93
2021/01/20 08:09:30;;;;;;;6.00;2.60;;;8.30;99.90;;;;;;6084823;23;20196;-92
2021/01/20 08:12:05;;;;;;;3.37;2.50;;;8.20;99.90;;;;;;6083947;23;20173;-92
2021/01/20 08:14:42;;;;;;;2.93;2.70;;;8.20;99.90;;;;;;6085448;23;20198;-94
2021/01/20 08:17:09;;;;;;;5.33;2.50;;;8.30;99.90;;;;;;6082561;23;20169;-90
2021/01/20 08:19:38;;;;;;;2.93;2.20;;;8.20;99.90;;;;;;6077175;23;20178;-91
2021/01/20 08:22:06;;;;;;;4.17;2.30;;;8.20;99.90;;;;;;6081108;23;20203;-91
2021/01/20 08:24:33;;;;;;;2.90;2.57;;;8.30;99.90;;;;;;6077941;23;20198;-92
2021/01/20 08:27:01;;;;;;;3.83;2.07;;;8.30;99.90;;;;;;6078218;23;20209;-90
2021/01/20 08:29:28;;;;;;;2.50;2.03;;;8.20;99.90;;;;;;6080997;23;20184;-92
2021/01/20 08:32:12;;;;;;;2.60;2.40;;;8.30;99.90;;;;;;6078040;23;20170;-92
2021/01/20 08:34:41;;;;;;;2.70;2.27;;;8.20;99.90;;;;;;6077117;23;20193;-92
2021/01/20 08:37:09;;;;;;;3.87;2.20;;;8.30;99.90;;;;;;6077128;23;20185;-91
2021/01/20 08:39:37;;;;;;;8.07;2.30;;;8.30;99.90;;;;;;6079265;23;20174;-93
2021/01/20 08:42:44;;;;;;;3.87;2.33;;;8.30;99.90;;;;;;6050844;23;20213;-92
2021/01/20 08:45:14;;;;;;;4.50;2.70;;;8.40;99.90;;;;;;6078980;23;20197;-89
2021/01/20 08:47:48;;;;;;;2.87;2.37;;;8.40;99.90;;;;;;6076048;23;20198;-94
2021/01/20 08:50:18;;;;;;;2.40;2.20;;;8.40;99.90;;;;;;6073179;23;20235;-91
2021/01/20 08:52:47;;;;;;;3.07;2.40;;;8.60;99.90;;;;;;6073536;23;20178;-90
2021/01/20 08:55:26;;;;;;;2.87;2.30;;;8.60;99.90;;;;;;6074252;23;20202;-88
2021/01/20 08:58:25;;;;;;;2.33;2.13;;;8.70;99.90;;;;;;6074753;23;20197;-91
2021/01/20 09:00:56;;;;;;;3.97;2.17;;;8.70;99.90;;;;;;6074956;23;20201;-89
2021/01/20 09:03:27;;;;;;;2.83;2.17;;;8.70;99.90;;;;;;6075224;23;20182;-92
2021/01/20 09:05:56;;;;;;;3.50;2.03;;;8.80;99.90;;;;;;6075054;23;20202;-90
2021/01/20 09:08:24;;;;;;;4.07;2.30;;;8.90;99.90;;;;;;6073335;23;20197;-89
2021/01/20 09:10:52;;;;;;;2.33;2.10;;;8.80;99.90;;;;;;6073308;23;20222;-90
2021/01/20 09:13:18;;;;;;;3.03;2.20;;;8.70;99.90;;;;;;6073889;23;20208;-93
2021/01/20 09:15:46;;;;;;;3.17;2.13;;;8.70;99.90;;;;;;6073432;23;20204;-90
2021/01/20 09:18:13;;;;;;;4.90;2.50;;;8.80;99.90;;;;;;6073948;23;20201;-91
2021/01/20 09:20:40;;;;;;;3.53;2.37;;;8.90;99.90;;;;;;6074146;23;20181;-92
2021/01/20 09:23:08;;;;;;;2.90;2.47;;;9.00;99.90;;;;;;6075361;23;20174;-92
2021/01/20 09:25:35;;;;;;;3.93;2.33;;;8.90;99.90;;;;;;6076152;23;20510;-93
2021/01/20 09:28:02;;;;;;;5.30;2.53;;;8.80;99.90;;;;;;6074822;23;20188;-92
2021/01/20 09:30:29;;;;;;;2.57;2.10;;;9.10;99.90;;;;;;6073319;23;20226;-90
2021/01/20 09:32:55;;;;;;;3.13;1.97;;;9.10;99.90;;;;;;6073414;23;20200;-91
2021/01/20 09:35:22;;;;;;;3.85;2.15;;;9.20;99.90;;;;;;6075194;23;20403;-91
2021/01/20 09:37:49;;;;;;;3.03;2.30;;;8.90;99.90;;;;;;6075740;23;20174;-92
2021/01/20 09:40:18;;;;;;;6.30;2.10;;;8.90;99.90;;;;;;6073743;23;20174;-92
2021/01/20 09:42:48;;;;;;;4.87;2.17;;;9.00;99.90;;;;;;6075227;23;20170;-92
2021/01/20 09:45:16;;;;;;;2.87;2.10;;;8.90;99.90;;;;;;6074548;23;20277;-90
2021/01/20 09:47:44;;;;;;;2.77;2.50;;;8.80;99.90;;;;;;6076312;23;20205;-91
2021/01/20 09:50:13;;;;;;;4.00;1.90;;;9.00;99.90;;;;;;6074421;23;20178;-90
2021/01/20 09:52:39;;;;;;;4.23;2.23;;;8.80;99.90;;;;;;6075194;23;20238;-91
2021/01/20 09:55:07;;;;;;;2.77;2.27;;;8.90;99.90;;;;;;6075604;23;20198;-91
2021/01/20 09:57:35;;;;;;;4.57;2.20;;;8.80;99.90;;;;;;6076256;23;20182;-92
2021/01/20 10:00:04;;;;;;;4.13;2.03;;;8.90;99.90;;;;;;6075328;23;20174;-92
2021/01/20 10:02:30;;;;;;;6.83;2.20;;;9.00;99.90;;;;;;6077495;23;20203;-91
2021/01/20 10:05:00;;;;;;;2.93;2.07;;;9.10;99.90;;;;;;6076309;23;20677;-93
2021/01/20 10:07:26;;;;;;;10.10;2.20;;;9.10;99.90;;;;;;6072837;23;20221;-90
2021/01/20 10:09:53;;;;;;;2.77;2.00;;;9.30;99.90;;;;;;6072643;23;20252;-91
2021/01/20 10:12:20;;;;;;;2.30;2.10;;;9.30;99.90;;;;;;6075162;23;20236;-91
2021/01/20 10:14:47;;;;;;;4.17;2.17;;;9.30;99.90;;;;;;6071578;23;20197;-92
2021/01/20 10:17:14;;;;;;;3.17;2.00;;;9.40;99.90;;;;;;6073007;23;20180;-90
2021/01/20 10:19:40;;;;;;;2.87;1.93;;;9.50;99.90;;;;;;6074761;23;20236;-89
2021/01/20 10:22:06;;;;;;;4.10;2.10;;;9.60;99.90;;;;;;6073865;23;20193;-92
2021/01/20 10:24:33;;;;;;;2.90;1.83;;;9.80;99.90;;;;;;6072014;23;20268;-91
2021/01/20 10:27:00;;;;;;;3.50;2.20;;;9.80;99.90;;;;;;6071114;23;20276;-90
2021/01/20 10:29:26;;;;;;;4.47;2.37;;;9.80;99.90;;;;;;6071130;23;20485;-90
2021/01/20 10:31:55;;;;;;;3.37;2.13;;;9.90;99.90;;;;;;6070598;23;20174;-91
2021/01/20 10:34:22;;;;;;;7.23;2.47;;;10.00;99.90;;;;;;6074356;23;20205;-91
2021/01/20 10:39:41;;;;;;;3.97;2.20;;;10.20;99.90;;;;;;6077999;23;20178;-91
2021/01/20 10:42:07;;;;;;;2.57;1.97;;;10.10;99.90;;;;;;6072383;23;20177;-88
2021/01/20 10:44:34;;;;;;;4.33;1.77;;;10.00;99.90;;;;;;6045587;23;20213;-88
2021/01/20 10:47:01;;;;;;;2.80;1.63;;;10.10;99.90;;;;;;6071419;23;20280;-91
2021/01/20 10:49:28;;;;;;;2.37;1.77;;;10.10;99.90;;;;;;6070721;23;20607;-87
2021/01/20 10:51:55;;;;;;;1.70;1.60;;;10.20;99.90;;;;;;6071511;23;20177;-88
2021/01/20 10:54:21;;;;;;;2.40;1.83;;;10.20;99.90;;;;;;6070793;23;20722;-90
2021/01/20 10:56:47;;;;;;;2.20;2.00;;;10.20;99.90;;;;;;6070874;23;20178;-88
2021/01/20 10:59:14;;;;;;;3.40;1.80;;;10.30;99.90;;;;;;6069577;23;20517;-90
2021/01/20 11:01:40;;;;;;;1.60;1.50;;;10.20;99.90;;;;;;6045448;23;20630;-91
2021/01/20 11:04:08;;;;;;;4.13;1.77;;;10.20;99.90;;;;;;6070281;23;20304;-92
2021/01/20 11:06:34;;;;;;;2.83;1.83;;;10.10;99.90;;;;;;6070951;23;20212;-91
2021/01/20 11:09:01;;;;;;;1.73;1.63;;;10.10;99.90;;;;;;6070213;23;20197;-92
2021/01/20 11:11:28;;;;;;;3.57;2.33;;;10.10;99.90;;;;;;6070606;23;20174;-88
2021/01/20 11:13:54;;;;;;;2.88;2.20;;;10.00;99.90;;;;;;6069205;23;20411;-89
2021/01/20 11:16:21;;;;;;;2.77;2.03;;;10.20;99.90;;;;;;6070122;23;20210;-89
2021/01/20 11:18:50;;;;;;;2.43;2.20;;;10.20;99.90;;;;;;6070807;23;20172;-90
2021/01/20 11:21:17;;;;;;;2.67;2.00;;;10.20;99.90;;;;;;6070283;23;20603;-90
2021/01/20 11:23:45;;;;;;;2.20;2.00;;;10.30;99.90;;;;;;6070195;23;20198;-91
2021/01/20 11:26:11;;;;;;;1.83;1.70;;;10.40;99.90;;;;;;6069904;23;20204;-90
2021/01/20 11:28:38;;;;;;;2.00;1.80;;;10.50;99.90;;;;;;6070025;23;20185;-89
2021/01/20 11:31:04;;;;;;;2.43;2.10;;;10.50;99.90;;;;;;6070208;23;20170;-89
2021/01/20 11:33:31;;;;;;;1.97;1.67;;;10.40;99.90;;;;;;6069904;23;20552;-87
2021/01/20 11:35:57;;;;;;;2.90;2.00;;;10.40;99.90;;;;;;6070080;23;20181;-89
2021/01/20 11:38:24;;;;;;;3.27;1.70;;;10.40;99.90;;;;;;6044893;23;20181;-86
2021/01/20 11:40:51;;;;;;;2.57;1.77;;;10.40;99.90;;;;;;6070214;23;20170;-90
2021/01/20 11:43:17;;;;;;;2.80;2.20;;;10.50;99.90;;;;;;6070076;23;20216;-88
2021/01/20 11:45:43;;;;;;;4.37;2.20;;;10.50;99.90;;;;;;6069872;23;20257;-89
2021/01/20 11:48:10;;;;;;;3.10;2.00;;;10.50;99.90;;;;;;6069872;23;20201;-90
2021/01/20 11:50:36;;;;;;;3.17;2.00;;;10.50;99.90;;;;;;6070277;23;20180;-89
2021/01/20 11:53:02;;;;;;;1.87;1.67;;;10.50;99.90;;;;;;6069756;23;20220;-89
2021/01/20 11:55:30;;;;;;;1.83;1.73;;;10.40;99.90;;;;;;6069520;23;20252;-89
2021/01/20 11:57:56;;;;;;;2.53;2.07;;;10.40;99.90;;;;;;6045387;23;20265;-89
2021/01/20 12:00:22;;;;;;;2.77;1.53;;;10.40;99.90;;;;;;6070807;23;20248;-90
2021/01/20 12:02:49;;;;;;;2.90;2.07;;;10.40;99.90;;;;;;6070626;23;20915;-88
2021/01/20 12:05:18;;;;;;;4.17;1.90;;;10.40;99.90;;;;;;6069598;23;20248;-86
2021/01/20 12:07:46;;;;;;;1.77;1.63;;;10.50;99.90;;;;;;6069618;23;20198;-89
2021/01/20 12:10:14;;;;;;;4.27;2.17;;;10.50;99.90;;;;;;6070131;23;20166;-89
2021/01/20 12:12:42;;;;;;;2.90;1.67;;;10.40;99.90;;;;;;6069499;23;20202;-88
2021/01/20 12:15:09;;;;;;;3.80;1.60;;;10.40;99.90;;;;;;6069851;23;20198;-88
2021/01/20 12:17:36;;;;;;;3.30;2.00;;;10.50;99.90;;;;;;6068703;23;20634;-88
2021/01/20 12:20:04;;;;;;;5.17;2.23;;;10.60;99.90;;;;;;6069952;23;20204;-88
2021/01/20 12:22:31;;;;;;;3.00;2.20;;;10.70;99.90;;;;;;6069748;23;20170;-88
2021/01/20 12:24:57;;;;;;;4.23;2.13;;;10.70;99.90;;;;;;6069438;23;20209;-88
2021/01/20 12:27:23;;;;;;;6.37;2.27;;;10.70;99.90;;;;;;6069512;23;20213;-88
2021/01/20 12:29:52;;;;;;;3.07;2.00;;;10.70;99.90;;;;;;6069735;23;20225;-88
2021/01/20 12:32:19;;;;;;;5.00;2.60;;;10.70;99.90;;;;;;6068823;23;20621;-88
2021/01/20 12:34:45;;;;;;;3.57;2.87;;;10.80;99.90;;;;;;6044081;23;20198;-88
2021/01/20 12:37:11;;;;;;;3.73;2.90;;;10.70;99.90;;;;;;6070574;23;20170;-89
2021/01/20 12:39:38;;;;;;;4.33;3.30;;;10.80;99.90;;;;;;6071353;23;20197;-89
2021/01/20 12:42:05;;;;;;;4.40;3.50;;;10.70;99.90;;;;;;6071563;23;20626;-90
2021/01/20 12:44:31;;;;;;;3.43;3.10;;;10.80;99.90;;;;;;6073205;23;20194;-89
2021/01/20 12:46:58;;;;;;;4.97;3.50;;;10.70;99.90;;;;;;6069551;23;20201;-90
2021/01/20 12:49:24;;;;;;;4.63;3.00;;;10.70;99.90;;;;;;6071851;23;20173;-91
2021/01/20 12:51:51;;;;;;;3.20;2.50;;;10.70;99.90;;;;;;6068886;23;20173;-91
2021/01/20 12:54:17;;;;;;;6.03;3.35;;;10.70;99.90;;;;;;6043062;23;20399;-90
2021/01/20 12:56:44;;;;;;;5.47;2.90;;;10.70;99.90;;;;;;6070841;23;20185;-87
2021/01/20 12:59:10;;;;;;;3.13;2.33;;;10.80;99.90;;;;;;6070249;23;20685;-92
2021/01/20 13:01:37;;;;;;;2.47;2.20;;;10.70;99.90;;;;;;6070925;23;20174;-90
2021/01/20 13:04:04;;;;;;;3.93;1.70;;;10.70;99.90;;;;;;6070909;23;20272;-90
2021/01/20 13:06:31;;;;;;;3.80;2.33;;;10.60;99.90;;;;;;6072561;23;20291;-88